createdAt,value
2019-05-15T00:01:48.950Z,0.40
2019-05-15T00:04:18.884Z,0.90
2019-05-15T00:06:48.712Z,0.40
2019-05-15T00:09:19.176Z,0.40
2019-05-15T00:11:49.090Z,0.30
2019-05-15T00:14:18.571Z,0.50
2019-05-15T00:16:48.318Z,1.83
2019-05-15T00:19:18.791Z,1.03
2019-05-15T00:21:49.674Z,0.50
2019-05-15T00:24:19.189Z,4.80
2019-05-15T00:26:48.817Z,1.17
2019-05-15T00:29:19.758Z,0.77
2019-05-15T00:31:49.798Z,1.53
2019-05-15T00:34:20.328Z,0.57
2019-05-15T00:36:49.750Z,0.53
2019-05-15T00:39:20.214Z,0.67
2019-05-15T00:41:54.552Z,0.90
2019-05-15T00:44:21.643Z,1.20
2019-05-15T00:46:51.061Z,0.63
2019-05-15T00:49:20.550Z,0.80
2019-05-15T00:51:50.173Z,0.67
2019-05-15T00:54:20.823Z,0.80
2019-05-15T00:56:50.314Z,0.60
2019-05-15T00:59:26.304Z,0.70
2019-05-15T01:01:51.000Z,1.30
2019-05-15T01:04:20.416Z,0.80
2019-05-15T01:06:52.679Z,3.60
2019-05-15T01:09:21.023Z,0.80
2019-05-15T01:11:50.438Z,1.23
2019-05-15T01:14:19.876Z,0.67
2019-05-15T01:16:49.394Z,2.60
2019-05-15T01:19:18.892Z,0.60
2019-05-15T01:21:48.362Z,0.33
2019-05-15T01:24:18.872Z,0.90
2019-05-15T01:26:49.306Z,1.07
2019-05-15T01:29:20.602Z,0.80
2019-05-15T01:31:50.160Z,1.53
2019-05-15T01:34:19.650Z,0.50
2019-05-15T01:36:49.229Z,1.17
2019-05-15T01:39:18.814Z,0.53
2019-05-15T01:41:49.570Z,0.30
2019-05-15T01:44:19.302Z,1.03
2019-05-15T01:46:48.793Z,0.73
2019-05-15T01:49:18.785Z,0.57
2019-05-15T01:51:49.526Z,1.77
2019-05-15T01:54:19.055Z,0.67
2019-05-15T01:56:49.412Z,0.60
2019-05-15T01:59:19.194Z,1.73
2019-05-15T02:01:48.810Z,0.60
2019-05-15T02:04:19.653Z,0.43
2019-05-15T02:06:49.727Z,0.40
2019-05-15T02:09:19.268Z,0.63
2019-05-15T02:11:49.033Z,0.60
2019-05-15T02:14:19.130Z,0.77
2019-05-15T02:16:48.987Z,1.60
2019-05-15T02:19:19.351Z,0.40
2019-05-15T02:21:49.051Z,0.57
2019-05-15T02:24:19.052Z,0.50
2019-05-15T02:26:48.883Z,0.63
2019-05-15T02:29:22.585Z,0.50
2019-05-15T02:31:50.474Z,0.60
2019-05-15T02:34:20.063Z,2.93
2019-05-15T02:36:49.672Z,0.80
2019-05-15T02:39:19.309Z,1.40
2019-05-15T02:41:49.479Z,1.07
2019-05-15T02:44:20.075Z,1.63
2019-05-15T02:46:50.270Z,2.73
2019-05-15T02:49:20.028Z,1.90
2019-05-15T02:51:49.577Z,2.03
2019-05-15T02:54:19.749Z,1.60
2019-05-15T02:56:49.760Z,0.93
2019-05-15T02:59:19.794Z,1.53
2019-05-15T03:01:49.721Z,1.43
2019-05-15T03:04:19.911Z,1.00
2019-05-15T03:06:50.112Z,1.77
2019-05-15T03:09:19.846Z,1.93
2019-05-15T03:11:49.852Z,4.03
2019-05-15T03:14:21.615Z,1.43
2019-05-15T03:16:51.408Z,0.90
2019-05-15T03:19:20.885Z,1.30
2019-05-15T03:21:50.520Z,2.00
2019-05-15T03:24:20.085Z,2.30
2019-05-15T03:26:49.879Z,1.33
2019-05-15T03:29:24.632Z,2.40
2019-05-15T03:35:05.105Z,2.80
2019-05-15T03:37:33.893Z,3.87
2019-05-15T03:40:05.553Z,3.97
2019-05-15T03:42:51.969Z,4.07
2019-05-15T03:45:23.196Z,5.10
2019-05-15T03:47:52.758Z,4.97
2019-05-15T03:50:40.117Z,7.07
2019-05-15T03:53:10.958Z,3.43
2019-05-15T03:55:40.980Z,5.33
2019-05-15T03:58:10.990Z,4.10
2019-05-15T04:00:43.557Z,2.13
2019-05-15T04:03:13.258Z,2.70
2019-05-15T04:05:42.888Z,2.53
2019-05-15T04:08:12.535Z,2.57
2019-05-15T04:10:42.167Z,2.07
2019-05-15T04:13:23.841Z,1.93
2019-05-15T04:15:55.063Z,1.87
2019-05-15T04:18:24.905Z,2.07
2019-05-15T04:20:54.819Z,3.27
2019-05-15T04:23:24.559Z,4.33
2019-05-15T04:25:54.163Z,5.80
2019-05-15T04:28:29.014Z,5.50
2019-05-15T04:31:00.436Z,3.27
2019-05-15T04:34:02.010Z,2.80
2019-05-15T04:36:45.952Z,5.97
2019-05-15T04:38:45.107Z,7.37
2019-05-15T04:41:15.901Z,4.23
2019-05-15T04:43:49.143Z,3.73
2019-05-15T04:46:19.740Z,3.77
2019-05-15T04:48:50.208Z,5.20
2019-05-15T04:51:21.191Z,3.70
2019-05-15T04:53:50.797Z,2.93
2019-05-15T04:56:20.483Z,3.70
2019-05-15T04:58:51.057Z,4.57
2019-05-15T05:01:21.012Z,3.10
2019-05-15T05:03:50.639Z,3.03
2019-05-15T05:06:21.873Z,3.33
2019-05-15T05:08:51.498Z,2.93
2019-05-15T05:11:23.850Z,2.40
2019-05-15T05:13:59.993Z,1.93
2019-05-15T05:16:29.743Z,3.87
2019-05-15T05:18:59.595Z,2.93
2019-05-15T05:21:29.280Z,2.87
2019-05-15T05:23:58.924Z,2.33
2019-05-15T05:26:29.341Z,2.47
2019-05-15T05:29:01.373Z,4.73
2019-05-15T05:31:32.422Z,2.33
2019-05-15T05:34:03.358Z,2.73
2019-05-15T05:36:38.547Z,2.33
2019-05-15T05:39:09.562Z,2.43
2019-05-15T05:41:39.449Z,3.37
2019-05-15T05:44:09.081Z,2.83
2019-05-15T05:46:39.732Z,2.60
2019-05-15T05:49:09.833Z,2.47
2019-05-15T05:51:39.456Z,2.43
2019-05-15T05:54:09.044Z,2.23
2019-05-15T05:56:38.719Z,3.53
2019-05-15T05:59:09.402Z,2.30
2019-05-15T06:01:48.180Z,2.57
2019-05-15T06:04:18.608Z,6.03
2019-05-15T06:06:50.058Z,2.30
2019-05-15T06:09:20.921Z,2.83
2019-05-15T06:11:50.478Z,3.03
2019-05-15T06:14:19.988Z,2.30
2019-05-15T06:16:49.411Z,2.17
2019-05-15T06:19:19.169Z,1.80
2019-05-15T06:21:56.746Z,2.83
2019-05-15T06:24:21.759Z,2.10
2019-05-15T06:26:51.302Z,3.37
2019-05-15T06:29:21.089Z,2.90
2019-05-15T06:31:50.668Z,2.50
2019-05-15T06:34:20.292Z,5.50
2019-05-15T06:36:49.923Z,2.83
2019-05-15T06:39:19.638Z,2.10
2019-05-15T06:41:49.121Z,3.27
2019-05-15T06:44:18.948Z,2.87
2019-05-15T06:46:48.687Z,2.70
2019-05-15T06:49:18.429Z,3.00
2019-05-15T06:51:48.748Z,3.30
2019-05-15T06:54:19.055Z,3.60
2019-05-15T06:56:49.405Z,2.33
2019-05-15T06:59:20.716Z,2.13
2019-05-15T07:01:50.326Z,2.37
2019-05-15T07:04:19.958Z,2.37
2019-05-15T07:06:49.438Z,1.90
2019-05-15T07:09:19.109Z,2.20
2019-05-15T07:11:48.673Z,1.97
2019-05-15T07:14:18.333Z,2.30
2019-05-15T07:16:48.830Z,4.07
2019-05-15T07:19:19.199Z,2.63
2019-05-15T07:21:49.139Z,4.27
2019-05-15T07:24:18.705Z,2.97
2019-05-15T07:26:48.497Z,2.60
2019-05-15T07:29:19.019Z,2.33
2019-05-15T07:31:48.687Z,2.50
2019-05-15T07:34:18.821Z,2.47
2019-05-15T07:36:49.419Z,2.83
2019-05-15T07:39:19.238Z,2.07
2019-05-15T07:41:48.894Z,2.80
2019-05-15T07:44:18.973Z,2.37
2019-05-15T07:46:49.009Z,3.70
2019-05-15T07:49:18.582Z,3.40
2019-05-15T07:51:49.019Z,5.33
2019-05-15T07:54:18.898Z,3.83
2019-05-15T07:56:48.867Z,4.80
2019-05-15T07:59:18.910Z,4.43
2019-05-15T08:01:48.995Z,3.10
2019-05-15T08:04:26.289Z,4.43
2019-05-15T08:06:50.021Z,4.10
2019-05-15T08:09:20.570Z,4.77
2019-05-15T08:11:50.134Z,3.67
2019-05-15T08:14:19.611Z,4.37
2019-05-15T08:16:49.104Z,4.03
2019-05-15T08:19:19.200Z,3.30
2019-05-15T08:21:51.951Z,3.37
2019-05-15T08:24:20.844Z,3.80
2019-05-15T08:26:50.400Z,2.87
2019-05-15T08:29:21.875Z,4.57
2019-05-15T08:31:52.476Z,4.47
2019-05-15T08:34:22.125Z,6.27
2019-05-15T08:36:54.796Z,3.83
2019-05-15T08:39:24.696Z,6.57
2019-05-15T08:41:54.257Z,4.63
2019-05-15T08:44:23.825Z,3.90
2019-05-15T08:46:53.400Z,3.43
2019-05-15T08:49:23.103Z,3.50
2019-05-15T08:51:52.733Z,6.03
2019-05-15T08:54:22.390Z,5.97
2019-05-15T08:56:51.956Z,5.90
2019-05-15T08:59:21.442Z,5.27
2019-05-15T09:01:50.926Z,5.80
2019-05-15T09:04:30.451Z,6.97
2019-05-15T09:06:51.920Z,4.87
2019-05-15T09:09:21.506Z,4.97
2019-05-15T09:11:51.064Z,4.60
2019-05-15T09:14:20.571Z,5.00
2019-05-15T09:16:50.249Z,5.93
2019-05-15T09:19:19.814Z,7.60
2019-05-15T09:21:49.604Z,5.60
2019-05-15T09:24:19.854Z,4.83
2019-05-15T09:26:49.715Z,6.60
2019-05-15T09:29:19.611Z,8.20
2019-05-15T09:31:50.675Z,7.63
2019-05-15T09:34:20.225Z,7.73
2019-05-15T09:36:49.802Z,5.77
2019-05-15T09:39:19.462Z,5.10
2019-05-15T09:41:50.700Z,5.93
2019-05-15T09:44:21.965Z,6.37
2019-05-15T09:46:51.731Z,6.57
2019-05-15T09:49:21.533Z,6.23
2019-05-15T09:51:51.041Z,6.20
2019-05-15T09:54:20.739Z,7.13
2019-05-15T09:56:50.366Z,6.23
2019-05-15T09:59:21.136Z,7.57
2019-05-15T10:01:50.845Z,7.30
2019-05-15T10:04:20.432Z,8.20
2019-05-15T10:06:57.731Z,7.77
2019-05-15T10:09:28.427Z,9.43
2019-05-15T10:11:58.383Z,8.07
2019-05-15T10:14:29.641Z,8.43
2019-05-15T10:16:59.508Z,8.40
2019-05-15T10:19:29.742Z,7.20
2019-05-15T10:21:59.755Z,8.60
2019-05-15T10:24:29.617Z,8.07
2019-05-15T10:26:59.343Z,7.23
2019-05-15T10:29:29.038Z,8.73
2019-05-15T10:31:58.726Z,9.07
2019-05-15T10:34:28.887Z,10.93
2019-05-15T10:36:58.983Z,8.93
2019-05-15T10:39:29.069Z,10.63
2019-05-15T10:41:58.710Z,12.63
2019-05-15T10:44:29.582Z,9.67
2019-05-15T10:46:59.059Z,12.43
2019-05-15T10:49:28.641Z,10.73
2019-05-15T10:51:58.073Z,8.27
2019-05-15T10:54:29.065Z,9.17
2019-05-15T10:57:00.819Z,13.27
2019-05-15T10:59:30.157Z,10.23
2019-05-15T11:01:59.718Z,13.10
2019-05-15T11:04:29.425Z,11.63
2019-05-15T11:06:59.029Z,14.70
2019-05-15T11:09:28.790Z,11.40
2019-05-15T11:11:58.501Z,11.43
2019-05-15T11:14:28.684Z,11.40
2019-05-15T11:16:58.949Z,9.50
2019-05-15T11:19:35.783Z,9.93
2019-05-15T11:22:00.219Z,9.80
2019-05-15T11:24:32.441Z,9.53
2019-05-15T11:27:01.264Z,9.53
2019-05-15T11:29:31.038Z,9.63
2019-05-15T11:32:00.528Z,8.47
2019-05-15T11:34:30.049Z,10.27
2019-05-15T11:36:59.609Z,12.00
2019-05-15T11:39:29.163Z,10.60
2019-05-15T11:41:59.544Z,10.27
2019-05-15T11:44:29.294Z,11.40
2019-05-15T11:46:58.865Z,11.80
2019-05-15T11:49:29.074Z,12.83
2019-05-15T11:52:00.522Z,15.70
2019-05-15T11:54:30.295Z,13.07
2019-05-15T11:57:00.837Z,12.83
2019-05-15T11:59:30.479Z,12.73
2019-05-15T12:02:00.056Z,13.13
2019-05-15T12:04:33.834Z,15.00
2019-05-15T12:07:02.660Z,11.73
2019-05-15T12:09:32.230Z,13.57
2019-05-15T12:12:03.599Z,13.93
2019-05-15T12:14:34.679Z,12.30
2019-05-15T12:17:11.337Z,12.37
2019-05-15T12:19:39.156Z,13.73
2019-05-15T12:22:11.696Z,13.97
2019-05-15T12:24:42.465Z,10.23
2019-05-15T12:27:17.866Z,18.00
2019-05-15T12:29:43.469Z,9.20
2019-05-15T12:32:26.572Z,10.90
2019-05-15T12:34:44.555Z,11.70
2019-05-15T12:37:14.152Z,12.53
2019-05-15T12:39:43.814Z,11.53
2019-05-15T13:00:00.184Z,16.23
2019-05-15T13:02:29.830Z,16.50
2019-05-15T13:05:00.951Z,19.60
2019-05-15T13:07:34.597Z,19.60
2019-05-15T13:10:05.680Z,16.53
2019-05-15T13:12:47.720Z,20.20
2019-05-15T13:15:09.782Z,19.17
2019-05-15T13:17:41.425Z,19.17
2019-05-15T13:20:12.583Z,15.50
2019-05-15T13:22:54.222Z,16.07
2019-05-15T13:25:23.995Z,15.73
2019-05-15T13:30:51.117Z,18.23
2019-05-15T13:33:20.830Z,17.20
2019-05-15T13:35:50.335Z,16.03
2019-05-15T13:38:19.879Z,15.93
2019-05-15T13:40:49.638Z,19.60
2019-05-15T13:43:19.221Z,18.70
2019-05-15T13:45:49.201Z,17.33
2019-05-15T13:48:22.160Z,21.20
2019-05-15T13:50:51.728Z,22.43
2019-05-15T13:53:21.271Z,22.67
2019-05-15T13:55:50.849Z,21.50
2019-05-15T13:58:20.490Z,18.43
2019-05-15T14:00:50.248Z,21.10
2019-05-15T14:03:21.563Z,21.23
2019-05-15T14:05:51.465Z,19.00
2019-05-15T14:08:28.539Z,21.73
2019-05-15T14:10:58.117Z,18.80
2019-05-15T14:13:28.990Z,23.63
2019-05-15T14:15:59.751Z,24.83
2019-05-15T14:18:30.225Z,21.67
2019-05-15T14:21:01.940Z,21.80
2019-05-15T14:23:32.514Z,14.87
2019-05-15T14:26:15.222Z,21.40
2019-05-15T14:28:39.284Z,19.93
2019-05-15T14:31:10.879Z,18.17
2019-05-15T14:33:40.970Z,15.87
2019-05-15T14:36:13.949Z,20.83
2019-05-15T14:38:45.804Z,17.20
2019-05-15T14:41:20.985Z,19.80
2019-05-15T14:43:57.723Z,15.70
2019-05-15T14:46:28.558Z,13.57
2019-05-15T14:48:58.410Z,16.83
2019-05-15T14:51:31.052Z,15.57
2019-05-15T14:54:00.993Z,9.80
2019-05-15T14:56:30.745Z,6.93
2019-05-15T14:59:01.417Z,5.27
2019-05-15T15:01:30.818Z,5.67
2019-05-15T15:04:00.496Z,5.60
2019-05-15T15:06:33.265Z,4.40
2019-05-15T15:09:03.185Z,7.47
2019-05-15T15:11:32.671Z,5.43
2019-05-15T15:14:02.267Z,4.33
2019-05-15T15:16:31.902Z,6.23
2019-05-15T15:19:01.924Z,6.50
2019-05-15T15:21:31.692Z,9.57
2019-05-15T15:24:03.887Z,5.20
2019-05-15T15:26:33.619Z,7.10
2019-05-15T15:29:03.340Z,8.03
2019-05-15T15:31:33.005Z,7.87
2019-05-15T15:34:02.512Z,7.53
2019-05-15T15:36:31.996Z,9.33
2019-05-15T15:39:02.277Z,9.60
2019-05-15T15:41:31.907Z,9.70
2019-05-15T15:44:01.544Z,8.10
2019-05-15T15:46:30.972Z,8.63
2019-05-15T15:49:00.533Z,8.17
2019-05-15T15:51:30.260Z,6.77
2019-05-15T15:53:59.823Z,9.20
2019-05-15T15:56:29.350Z,8.13
2019-05-15T15:58:59.591Z,9.00
2019-05-15T16:01:31.276Z,9.43
2019-05-15T16:04:00.432Z,9.40
2019-05-15T16:06:30.031Z,9.37
2019-05-15T16:08:59.818Z,10.73
2019-05-15T16:11:29.362Z,9.40
2019-05-15T16:13:58.869Z,17.93
2019-05-15T16:16:29.065Z,12.30
2019-05-15T16:18:58.732Z,10.00
2019-05-15T16:21:28.918Z,13.10
2019-05-15T16:24:12.468Z,15.00
2019-05-15T16:26:30.859Z,14.73
2019-05-15T16:29:01.621Z,21.60
2019-05-15T16:31:31.563Z,32.97
2019-05-15T16:34:01.324Z,35.53
2019-05-15T16:36:32.464Z,49.60
2019-05-15T16:39:08.169Z,25.63
2019-05-15T16:41:38.158Z,20.00
2019-05-15T16:44:08.719Z,16.43
2019-05-15T16:46:39.285Z,14.87
2019-05-15T16:49:12.547Z,16.47
2019-05-15T16:51:42.460Z,15.20
2019-05-15T16:54:12.063Z,14.77
2019-05-15T16:56:41.668Z,14.33
2019-05-15T16:59:11.093Z,12.87
2019-05-15T17:01:41.080Z,14.33
2019-05-15T17:04:10.737Z,10.17
2019-05-15T17:06:40.273Z,12.40
2019-05-15T17:09:20.856Z,10.30
2019-05-15T17:11:41.211Z,10.27
2019-05-15T17:14:10.629Z,11.17
2019-05-15T17:16:40.587Z,8.33
2019-05-15T17:19:10.353Z,9.83
2019-05-15T17:21:39.975Z,12.60
2019-05-15T17:24:09.640Z,13.50
2019-05-15T17:26:39.199Z,16.40
2019-05-15T17:29:09.997Z,27.50
2019-05-15T17:31:39.987Z,32.03
2019-05-15T17:34:11.663Z,28.10
2019-05-15T17:36:41.351Z,25.63
2019-05-15T17:39:10.959Z,23.57
2019-05-15T17:41:42.182Z,20.37
2019-05-15T17:44:11.973Z,17.73
2019-05-15T17:46:41.940Z,16.93
2019-05-15T17:49:15.371Z,17.57
2019-05-15T17:51:44.672Z,16.87
2019-05-15T17:54:14.254Z,16.90
2019-05-15T17:56:43.700Z,17.17
2019-05-15T17:59:13.223Z,17.40
2019-05-15T18:01:43.072Z,13.73
2019-05-15T18:04:12.635Z,11.57
2019-05-15T18:06:42.443Z,12.27
2019-05-15T18:09:12.201Z,14.30
2019-05-15T18:11:44.462Z,12.10
2019-05-15T18:14:12.978Z,11.20
2019-05-15T18:16:42.816Z,8.53
2019-05-15T18:19:12.678Z,10.00
2019-05-15T18:21:42.186Z,10.50
2019-05-15T18:24:15.161Z,10.63
2019-05-15T18:26:44.866Z,10.90
2019-05-15T18:29:14.589Z,10.27
2019-05-15T18:31:44.557Z,11.10
2019-05-15T18:36:51.606Z,24.33
2019-05-15T18:39:21.397Z,19.70
2019-05-15T18:41:50.962Z,12.37
2019-05-15T18:44:20.610Z,12.83
2019-05-15T18:46:50.045Z,10.63
2019-05-15T18:49:19.785Z,9.90
2019-05-15T18:51:49.570Z,11.37
2019-05-15T18:54:20.708Z,12.43
2019-05-15T18:56:50.453Z,8.57
2019-05-15T18:59:20.021Z,9.17
2019-05-15T19:01:49.597Z,11.77
2019-05-15T19:04:19.387Z,10.87
2019-05-15T19:06:53.573Z,9.60
2019-05-15T19:09:23.417Z,10.17
2019-05-15T19:11:52.959Z,9.63
2019-05-15T19:14:22.447Z,11.90
2019-05-15T19:16:53.887Z,10.90
2019-05-15T19:19:24.970Z,10.73
2019-05-15T19:21:58.170Z,11.10
2019-05-15T19:24:27.554Z,11.63
2019-05-15T19:26:58.704Z,9.57
2019-05-15T19:29:30.238Z,9.80
2019-05-15T19:31:59.662Z,11.43
2019-05-15T19:34:29.081Z,12.80
2019-05-15T19:36:58.644Z,12.17
2019-05-15T19:39:29.923Z,13.13
2019-05-15T19:41:59.492Z,13.03
2019-05-15T19:44:29.154Z,12.30
2019-05-15T19:46:58.865Z,13.23
2019-05-15T19:49:28.572Z,8.77
2019-05-15T19:51:58.247Z,11.17
2019-05-15T19:54:28.914Z,7.90
2019-05-15T19:56:59.869Z,11.03
2019-05-15T19:59:29.766Z,10.97
2019-05-15T20:01:59.667Z,10.60
2019-05-15T20:04:30.960Z,9.80
2019-05-15T20:07:00.627Z,12.87
2019-05-15T20:09:30.304Z,14.53
2019-05-15T20:11:59.942Z,12.97
2019-05-15T20:14:29.446Z,15.57
2019-05-15T20:16:59.297Z,16.60
2019-05-15T20:19:28.912Z,14.83
2019-05-15T20:21:58.463Z,15.27
2019-05-15T20:24:29.321Z,13.47
2019-05-15T20:26:58.965Z,18.07
2019-05-15T20:29:29.021Z,17.50
2019-05-15T20:31:58.823Z,16.17
2019-05-15T20:34:28.808Z,20.50
2019-05-15T20:36:59.918Z,20.47
2019-05-15T20:39:29.573Z,22.83
2019-05-15T20:41:59.134Z,21.13
2019-05-15T20:44:28.719Z,19.50
2019-05-15T20:46:58.989Z,19.83
2019-05-15T20:49:29.137Z,26.13
2019-05-15T20:51:58.746Z,18.17
2019-05-15T20:54:28.538Z,17.87
2019-05-15T20:56:59.189Z,14.13
2019-05-15T20:59:28.853Z,18.03
2019-05-15T21:01:59.354Z,15.50
2019-05-15T21:04:29.546Z,26.87
2019-05-15T21:06:59.046Z,21.93
2019-05-15T21:09:30.662Z,17.37
2019-05-15T21:11:59.759Z,15.17
2019-05-15T21:14:29.253Z,14.90
2019-05-15T21:16:59.156Z,19.73
2019-05-15T21:19:29.068Z,17.07
2019-05-15T21:21:58.863Z,16.23
2019-05-15T21:24:28.445Z,15.80
2019-05-15T21:26:58.236Z,22.67
2019-05-15T21:29:28.890Z,20.53
2019-05-15T21:31:58.517Z,18.63
2019-05-15T21:34:37.332Z,17.63
2019-05-15T21:36:59.333Z,17.33
2019-05-15T21:39:30.217Z,16.97
2019-05-15T21:42:00.253Z,18.10
2019-05-15T21:44:29.682Z,15.07
2019-05-15T21:46:59.104Z,16.40
2019-05-15T21:49:28.687Z,14.57
2019-05-15T21:51:58.495Z,15.00
2019-05-15T21:54:28.305Z,12.83
2019-05-15T21:57:07.557Z,13.13
2019-05-15T21:59:28.991Z,11.87
2019-05-15T22:01:59.034Z,11.60
2019-05-15T22:04:30.534Z,10.77
2019-05-15T22:06:59.763Z,11.00
2019-05-15T22:09:29.848Z,10.70
2019-05-15T22:12:01.203Z,9.50
2019-05-15T22:14:31.247Z,11.40
2019-05-15T22:17:02.207Z,10.73
2019-05-15T22:19:31.832Z,10.87
2019-05-15T22:22:01.398Z,9.77
2019-05-15T22:24:31.114Z,10.00
2019-05-15T22:27:00.667Z,9.10
2019-05-15T22:29:30.477Z,11.67
2019-05-15T22:32:00.041Z,10.50
2019-05-15T22:34:29.704Z,13.37
2019-05-15T22:36:59.191Z,10.60
2019-05-15T22:39:28.605Z,10.70
2019-05-15T22:41:58.271Z,10.97
2019-05-15T22:44:28.186Z,8.23
2019-05-15T22:46:58.178Z,9.40
2019-05-15T22:49:28.856Z,10.93
2019-05-15T22:51:58.515Z,9.20
2019-05-15T22:54:28.152Z,9.63
2019-05-15T22:56:57.965Z,9.57
2019-05-15T22:59:28.327Z,10.43
2019-05-15T23:01:58.269Z,10.37
2019-05-15T23:04:28.722Z,11.83
2019-05-15T23:06:58.458Z,10.33
2019-05-15T23:09:28.375Z,9.63
2019-05-15T23:11:58.879Z,10.57
2019-05-15T23:14:30.023Z,9.27
2019-05-15T23:16:59.514Z,10.80
2019-05-15T23:19:29.080Z,9.63
2019-05-15T23:21:59.167Z,13.33
2019-05-15T23:24:28.968Z,10.63
2019-05-15T23:26:58.448Z,11.03
2019-05-15T23:29:28.183Z,12.77
2019-05-15T23:31:58.399Z,10.70
2019-05-15T23:34:28.153Z,10.10
2019-05-15T23:36:57.744Z,9.40
2019-05-15T23:39:27.229Z,8.83
2019-05-15T23:41:58.474Z,9.93
2019-05-15T23:44:28.979Z,9.67
2019-05-15T23:46:58.432Z,8.83
2019-05-15T23:49:28.062Z,10.50
2019-05-15T23:51:58.213Z,9.13
2019-05-15T23:54:28.067Z,8.73
2019-05-15T23:56:58.417Z,10.47
2019-05-15T23:59:28.295Z,13.10
